Time;durP1;ratioP1;P1;durP2;ratioP2;P2;SDS_P1;SDS_P2;PMS_P1;PMS_P2;Temp;Humidity;BMP_temperature;BMP_pressure;BME280_temperature;BME280_humidity;BME280_pressure;Samples;Min_cycle;Max_cycle;Signal;HPM_P1;HPM_P2
2022/07/03 00:00:45;;;;;;;5.47;2.33;;;;;;;19.58;49.53;100479.66;10141989;29;20086;-78
2022/07/03 00:05:48;;;;;;;2.47;2.10;;;;;;;19.46;49.39;100482.75;10125328;29;20055;-78
2022/07/03 00:10:51;;;;;;;3.17;1.85;;;;;;;19.36;49.74;100484.00;10141806;29;20135;-79
2022/07/03 00:15:56;;;;;;;2.95;2.20;;;;;;;19.33;49.82;100481.66;10143253;29;20127;-79
2022/07/03 00:21:01;;;;;;;2.95;1.98;;;;;;;19.35;49.86;100479.59;10143205;29;20137;-78
2022/07/03 00:26:06;;;;;;;4.60;2.47;;;;;;;19.19;50.37;100481.38;10141847;29;20052;-78
2022/07/03 00:31:12;;;;;;;2.72;1.88;;;;;;;19.20;50.37;100487.69;10118777;29;20052;-78
2022/07/03 00:36:15;;;;;;;2.42;2.20;;;;;;;19.19;50.48;100488.72;10111507;29;20056;-79
2022/07/03 00:41:36;;;;;;;4.00;1.98;;;;;;;19.22;50.67;100482.91;10140251;29;20513;-78
2022/07/03 00:46:42;;;;;;;3.85;2.20;;;;;;;19.31;50.30;100484.56;10137670;29;20060;-79
2022/07/03 00:51:52;;;;;;;2.85;2.35;;;;;;;19.30;50.61;100480.13;10139832;29;20052;-79
2022/07/03 00:56:55;;;;;;;3.47;2.60;;;;;;;19.12;51.20;100466.81;10141942;29;20056;-78
2022/07/03 01:02:05;;;;;;;2.42;2.20;;;;;;;18.98;51.58;100462.13;10124035;29;20048;-79
2022/07/03 01:07:17;;;;;;;3.58;2.28;;;;;;;18.91;51.70;100461.13;10150653;29;20071;-78
2022/07/03 01:12:27;;;;;;;3.90;2.07;;;;;;;18.80;51.94;100457.75;10156112;29;20099;-79
2022/07/03 01:17:38;;;;;;;2.88;2.30;;;;;;;18.65;52.36;100445.91;10117099;29;20052;-78
2022/07/03 01:22:44;;;;;;;3.60;2.30;;;;;;;18.47;52.84;100443.38;10140821;29;20052;-78
2022/07/03 01:28:14;;;;;;;5.68;2.60;;;;;;;18.39;52.90;100442.56;10139683;29;20089;-78
2022/07/03 01:33:18;;;;;;;3.33;3.00;;;;;;;18.42;52.87;100431.34;10139633;29;20063;-78
2022/07/03 01:38:22;;;;;;;2.97;2.38;;;;;;;18.39;52.85;100432.53;10140705;29;20052;-79
2022/07/03 01:43:29;;;;;;;2.60;2.40;;;;;;;18.34;52.60;100433.03;10139713;29;20128;-79
2022/07/03 01:48:33;;;;;;;5.55;2.58;;;;;;;18.14;53.35;100426.31;10138901;29;20052;-79
2022/07/03 01:53:37;;;;;;;2.42;2.00;;;;;;;;;;10140046;29;20305;-78
2022/07/03 01:58:41;;;;;;;1.75;1.65;;;;;;;18.01;53.39;100424.13;10107131;29;20084;-78
2022/07/03 02:03:56;;;;;;;6.47;2.35;;;;;;;17.81;53.73;100429.03;10136162;29;20056;-78
2022/07/03 02:09:03;;;;;;;5.00;1.70;;;;;;;17.74;54.08;100422.56;10112841;29;20056;-78
2022/07/03 02:14:36;;;;;;;3.40;1.88;;;;;;;17.71;54.15;100417.47;10138104;29;20051;-78
2022/07/03 02:19:45;;;;;;;3.42;1.98;;;;;;;17.67;53.91;100408.00;10140577;29;20466;-79
2022/07/03 02:24:49;;;;;;;1.80;1.70;;;;;;;17.66;53.90;100401.72;10144553;29;20048;-78
2022/07/03 02:30:00;;;;;;;4.15;2.42;;;;;;;17.46;54.41;100403.91;10143943;29;20094;-79
2022/07/03 02:35:05;;;;;;;4.68;1.98;;;;;;;17.40;54.72;100401.88;10146714;29;20405;-78
2022/07/03 02:40:15;;;;;;;1.98;1.83;;;;;;;17.33;54.89;100399.97;10143676;29;20047;-78
2022/07/03 02:45:22;;;;;;;3.08;2.63;;;;;;;17.26;55.41;100407.97;10148141;29;20044;-78
2022/07/03 02:50:28;;;;;;;4.82;2.55;;;;;;;17.25;55.22;100407.13;10146655;29;20091;-78
2022/07/03 02:55:43;;;;;;;3.22;2.25;;;;;;;17.36;54.98;100413.22;10146252;29;20577;-78
2022/07/03 03:00:58;;;;;;;2.10;2.00;;;;;;;17.30;55.27;100416.63;10139366;29;20111;-79
2022/07/03 03:06:04;;;;;;;2.10;2.00;;;;;;;17.19;55.65;100413.19;10145953;29;20631;-77
2022/07/03 03:11:09;;;;;;;4.03;1.92;;;;;;;17.19;55.45;100412.34;10146890;29;20104;-78
2022/07/03 03:16:15;;;;;;;6.30;2.65;;;;;;;16.19;58.06;100438.34;10146981;29;20162;-78
2022/07/03 03:21:20;;;;;;;3.80;2.40;;;;;;;16.49;58.04;100428.88;10140164;29;20068;-78
2022/07/03 03:26:24;;;;;;;2.90;2.40;;;;;;;15.87;59.97;100448.75;10172199;29;20056;-79
2022/07/03 03:31:29;;;;;;;2.72;2.42;;;;;;;15.94;59.99;100446.28;10160780;29;20092;-80
2022/07/03 03:36:32;;;;;;;6.20;2.20;;;;;;;16.52;58.42;100442.97;10149427;29;20051;-78
2022/07/03 03:41:36;;;;;;;3.17;2.38;;;;;;;16.75;57.63;100435.09;10166796;29;20124;-80
2022/07/03 03:46:40;;;;;;;4.00;2.40;;;;;;;16.85;57.62;100436.84;10152811;29;20060;-79
2022/07/03 03:51:43;;;;;;;2.92;2.28;;;;;;;16.33;58.82;100449.47;10147110;29;21200;-79
2022/07/03 03:56:46;;;;;;;2.83;2.50;;;;;;;16.58;58.66;100449.59;10144613;29;20162;-79
2022/07/03 04:01:50;;;;;;;4.07;2.85;;;;;;;16.76;58.19;100452.22;10142138;29;20044;-78
2022/07/03 04:06:53;;;;;;;2.38;2.17;;;;;;;16.81;58.14;100439.88;10145296;29;20380;-80
2022/07/03 04:11:55;;;;;;;4.45;2.17;;;;;;;16.99;57.91;100431.63;10148903;29;20675;-81
2022/07/03 04:17:00;;;;;;;3.03;2.65;;;;;;;17.12;57.63;100422.16;10144615;29;20056;-80
2022/07/03 04:22:08;;;;;;;5.15;2.03;;;;;;;17.20;56.95;100433.06;10143121;29;20083;-79
2022/07/03 04:27:10;;;;;;;2.38;2.17;;;;;;;17.33;57.07;100433.41;10139872;29;20083;-79
2022/07/03 04:32:15;;;;;;;5.50;2.30;;;;;;;17.31;56.71;100432.75;10141155;29;20059;-78
2022/07/03 04:37:17;;;;;;;3.55;2.30;;;;;;;17.48;57.13;100433.63;10140838;29;20059;-79
2022/07/03 04:42:20;;;;;;;2.53;2.25;;;;;;;17.56;56.71;100436.34;10143740;29;20052;-79
2022/07/03 04:47:25;;;;;;;2.33;2.13;;;;;;;17.69;56.13;100436.69;10145161;29;20123;-79
2022/07/03 04:52:28;;;;;;;3.58;2.40;;;;;;;17.76;55.14;100452.31;10142474;29;20086;-79
2022/07/03 04:57:32;;;;;;;6.03;2.30;;;;;;;17.67;55.54;100446.88;10124087;29;20538;-79
2022/07/03 05:02:37;;;;;;;5.10;2.03;;;;;;;17.84;55.31;100446.88;10141084;29;20063;-79
2022/07/03 05:07:40;;;;;;;2.25;1.77;;;;;;;17.96;54.73;100444.63;10146037;29;20052;-79
2022/07/03 05:12:43;;;;;;;2.55;1.98;;;;;;;18.08;54.97;100448.75;10147982;29;20048;-78
2022/07/03 05:17:48;;;;;;;2.17;2.03;;;;;;;18.10;54.98;100453.00;10145631;29;20048;-78
2022/07/03 05:22:51;;;;;;;28.20;3.85;;;;;;;18.28;55.08;100449.22;10149253;29;20095;-79
2022/07/03 05:27:54;;;;;;;2.00;1.90;;;;;;;18.35;55.08;100445.63;10145644;29;20059;-79
2022/07/03 05:32:58;;;;;;;3.10;2.00;;;;;;;18.48;54.45;100466.00;10122510;29;20494;-79
2022/07/03 05:38:01;;;;;;;2.40;2.10;;;;;;;18.60;54.65;100467.34;10143172;29;20092;-79
2022/07/03 05:43:04;;;;;;;2.53;2.30;;;;;;;18.72;54.67;100468.63;10150537;29;20056;-78
2022/07/03 05:48:08;;;;;;;2.38;1.98;;;;;;;18.93;53.95;100478.13;10136301;29;20059;-78
2022/07/03 05:53:11;;;;;;;2.72;2.03;;;;;;;19.31;53.22;100483.69;10153757;29;20048;-78
2022/07/03 05:58:14;;;;;;;3.28;2.17;;;;;;;19.45;52.62;100486.50;10150542;29;20540;-79
2022/07/03 06:03:19;;;;;;;6.07;2.42;;;;;;;19.43;53.29;100498.63;10155146;29;20055;-79
2022/07/03 06:08:21;;;;;;;3.42;2.13;;;;;;;19.56;54.32;100488.00;10149955;29;20063;-78
2022/07/03 06:13:25;;;;;;;2.45;2.25;;;;;;;19.61;51.95;100482.88;10151440;29;20091;-79
2022/07/03 06:18:29;;;;;;;2.22;2.10;;;;;;;19.73;51.31;100486.00;10153387;29;20096;-80
2022/07/03 06:23:32;;;;;;;4.97;2.13;;;;;;;19.92;50.89;100486.56;10155103;29;20056;-79
2022/07/03 06:28:50;;;;;;;2.95;2.22;;;;;;;19.97;51.55;100482.25;10136058;29;20433;-78
2022/07/03 06:33:54;;;;;;;3.75;2.38;;;;;;;19.92;50.51;100484.69;10157881;29;20112;-79
2022/07/03 06:38:57;;;;;;;3.25;2.40;;;;;;;20.40;50.23;100482.53;10159006;29;20051;-79
2022/07/03 06:44:00;;;;;;;2.47;2.35;;;;;;;20.60;48.59;100487.44;10157897;29;20048;-78
2022/07/03 06:49:05;;;;;;;5.43;2.50;;;;;;;20.45;49.27;100493.75;10153525;29;20060;-80
2022/07/03 06:54:07;;;;;;;2.15;2.05;;;;;;;21.20;48.69;100491.84;10144352;29;20055;-80
2022/07/03 06:59:10;;;;;;;5.10;2.33;;;;;;;21.36;47.78;100496.22;10151660;29;20048;-79
2022/07/03 07:04:15;;;;;;;2.28;2.00;;;;;;;21.57;48.92;100506.38;10136841;29;20052;-80
2022/07/03 07:09:18;;;;;;;2.33;2.10;;;;;;;21.72;47.67;100501.69;10148672;29;20066;-80
2022/07/03 07:14:20;;;;;;;3.15;2.38;;;;;;;22.65;45.64;100505.22;10136064;29;20693;-80
2022/07/03 07:19:25;;;;;;;4.72;2.00;;;;;;;22.92;44.39;100498.00;10133312;29;20099;-79
2022/07/03 07:24:27;;;;;;;3.35;2.17;;;;;;;24.71;42.12;100493.91;10140382;29;20131;-79
2022/07/03 07:29:30;;;;;;;2.90;1.60;;;;;;;27.97;37.51;100497.41;10145511;29;20052;-80
2022/07/03 07:34:34;;;;;;;4.53;1.85;;;;;;;30.27;32.81;100489.53;10144176;29;20103;-79
2022/07/03 07:39:37;;;;;;;3.53;1.60;;;;;;;32.26;30.49;100485.56;10146009;29;20055;-79
2022/07/03 07:44:40;;;;;;;6.63;1.60;;;;;;;33.38;28.70;100488.97;10145665;29;20502;-80
2022/07/03 07:49:44;;;;;;;4.90;1.40;;;;;;;32.25;29.23;100501.38;10117359;29;20057;-80
2022/07/03 07:54:48;;;;;;;3.58;1.30;;;;;;;32.36;28.98;100503.13;10140106;29;20422;-80
2022/07/03 07:59:51;;;;;;;1.98;1.40;;;;;;;31.44;30.93;100512.53;10140586;29;20059;-81
2022/07/03 08:10:16;;;;;;;4.55;1.77;;;;;;;26.87;34.77;100519.66;10138343;29;20584;-79
2022/07/03 08:15:19;;;;;;;2.10;1.25;;;;;;;27.22;35.94;100522.63;10136300;29;20060;-80
2022/07/03 08:20:23;;;;;;;0.95;0.80;;;;;;;25.29;37.13;100520.59;10140970;29;20063;-79
2022/07/03 08:25:27;;;;;;;0.80;0.80;;;;;;;25.99;36.32;100521.47;10138440;29;20052;-80
2022/07/03 08:30:29;;;;;;;2.40;0.80;;;;;;;26.06;35.36;100516.75;10140318;29;20055;-78
2022/07/03 08:35:34;;;;;;;2.05;0.70;;;;;;;25.99;35.13;100504.94;10139444;29;21230;-79
2022/07/03 08:40:38;;;;;;;1.15;0.70;;;;;;;25.81;35.47;100505.72;10139218;29;20048;-78
2022/07/03 08:45:42;;;;;;;1.00;0.85;;;;;;;26.24;35.59;100495.88;10140721;29;20151;-79
2022/07/03 08:50:47;;;;;;;4.18;0.63;;;;;;;27.39;34.32;100500.78;10138834;29;20167;-78
2022/07/03 08:55:50;;;;;;;2.58;0.80;;;;;;;26.54;32.89;100501.53;10151356;29;20060;-77
2022/07/03 09:00:54;;;;;;;1.63;0.70;;;;;;;26.99;32.62;100501.31;10156301;29;20145;-77
2022/07/03 09:05:58;;;;;;;2.95;0.60;;;;;;;26.27;33.00;100496.31;10133227;29;20048;-76
2022/07/03 09:11:01;;;;;;;1.88;0.65;;;;;;;25.79;32.73;100507.84;10132178;29;20605;-77
2022/07/03 09:16:05;;;;;;;3.25;0.68;;;;;;;27.64;32.58;100510.84;10120252;29;21219;-76
2022/07/03 09:21:10;;;;;;;1.88;0.70;;;;;;;28.87;30.01;100493.47;10131946;29;20056;-76
2022/07/03 09:26:14;;;;;;;0.60;0.60;;;;;;;27.76;31.10;100509.81;10129608;29;20103;-76
2022/07/03 09:31:17;;;;;;;1.25;0.60;;;;;;;27.10;31.53;100506.03;10130057;29;20055;-76
2022/07/03 09:36:37;;;;;;;0.95;0.45;;;;;;;28.08;31.80;100494.91;10130570;29;20054;-77
2022/07/03 09:41:52;;;;;;;4.78;0.60;;;;;;;27.92;31.37;100502.78;10130805;29;20060;-76
2022/07/03 09:47:10;;;;;;;1.85;0.60;;;;;;;28.04;31.71;100489.88;10131611;29;20060;-76
2022/07/03 09:52:30;;;;;;;2.40;1.00;;;;;;;28.98;31.28;100491.78;10131726;29;20150;-78
2022/07/03 09:57:33;;;;;;;2.92;0.80;;;;;;;29.62;29.93;100501.94;10129196;29;20044;-77
2022/07/03 10:02:36;;;;;;;3.50;0.68;;;;;;;27.80;30.52;100502.75;10097435;29;20791;-77
2022/07/03 10:07:53;;;;;;;0.85;0.63;;;;;;;28.09;31.13;100493.84;10132360;29;20711;-77
2022/07/03 10:12:56;;;;;;;2.15;0.70;;;;;;;27.76;31.33;100497.94;10133223;29;20541;-79
2022/07/03 10:18:00;;;;;;;3.30;0.70;;;;;;;27.59;30.75;100498.63;10132837;29;20044;-76
2022/07/03 10:23:05;;;;;;;3.53;0.65;;;;;;;28.00;30.73;100485.91;10138293;29;20100;-77
2022/07/03 10:28:08;;;;;;;1.25;0.60;;;;;;;28.96;29.02;100482.03;10138887;29;20089;-76
2022/07/03 10:33:11;;;;;;;0.70;0.70;;;;;;;29.63;29.26;100479.56;10138245;29;20047;-79
2022/07/03 10:38:33;;;;;;;0.85;0.70;;;;;;;28.52;29.52;100478.88;10109512;29;20155;-76
2022/07/03 10:49:02;;;;;;;2.70;0.98;;;;;;;27.65;31.36;100484.97;10143018;29;20104;-78
2022/07/03 10:54:18;;;;;;;0.63;0.63;;;;;;;28.81;30.50;100471.50;10143046;29;20135;-78
2022/07/03 10:59:21;;;;;;;2.35;0.60;;;;;;;30.18;27.94;100464.19;10140423;29;20056;-78
2022/07/03 11:04:24;;;;;;;0.90;0.77;;;;;;;27.15;32.02;100475.00;10139371;29;20056;-77
2022/07/03 11:09:28;;;;;;;0.98;0.75;;;;;;;27.28;32.30;100461.03;10141656;29;20498;-78
2022/07/03 11:14:31;;;;;;;1.88;0.90;;;;;;;27.91;31.34;100459.69;10141548;29;20067;-78
2022/07/03 11:19:35;;;;;;;5.13;1.10;;;;;;;28.32;31.12;100459.88;10140416;29;20391;-77
2022/07/03 11:24:44;;;;;;;2.53;0.80;;;;;;;28.22;30.84;100455.81;10139728;29;20056;-78
2022/07/03 11:29:54;;;;;;;1.30;0.77;;;;;;;29.25;28.95;100445.06;10140787;29;20067;-77
2022/07/03 11:34:57;;;;;;;1.45;0.77;;;;;;;30.52;28.32;100439.19;10135069;29;20715;-77
2022/07/03 11:40:04;;;;;;;0.98;0.80;;;;;;;29.88;28.88;100440.41;10140245;29;20127;-76
2022/07/03 11:45:09;;;;;;;0.85;0.70;;;;;;;28.99;29.29;100448.38;10140770;29;20459;-77
2022/07/03 11:50:12;;;;;;;1.70;0.70;;;;;;;28.42;30.88;100438.03;10121265;29;20051;-78
2022/07/03 11:55:16;;;;;;;2.40;1.15;;;;;;;30.12;28.09;100423.63;10139393;29;20096;-78
2022/07/03 12:00:19;;;;;;;2.10;0.65;;;;;;;29.22;28.62;100434.50;10139839;29;20048;-78
2022/07/03 12:05:22;;;;;;;1.08;0.60;;;;;;;29.15;29.49;100440.19;10127433;29;20117;-78
2022/07/03 12:10:39;;;;;;;4.32;0.70;;;;;;;27.54;30.64;100440.56;10137002;29;20074;-78
2022/07/03 12:15:41;;;;;;;1.80;0.85;;;;;;;29.44;29.52;100428.28;10144118;29;20127;-79
2022/07/03 12:20:44;;;;;;;1.00;0.38;;;;;;;30.99;27.72;100431.22;10147702;29;20067;-79
2022/07/03 12:25:49;;;;;;;1.73;0.80;;;;;;;31.06;26.66;100426.31;10147162;29;20111;-77
2022/07/03 12:30:52;;;;;;;2.83;0.70;;;;;;;30.15;27.88;100423.16;10140758;29;20054;-78
2022/07/03 12:36:03;;;;;;;1.52;0.82;;;;;;;31.46;27.37;100410.38;10142662;29;20047;-77
2022/07/03 12:41:09;;;;;;;2.70;0.88;;;;;;;30.74;27.24;100406.81;10141587;29;20573;-76
2022/07/03 12:46:19;;;;;;;2.85;0.60;;;;;;;29.84;28.11;100411.56;10141970;29;20052;-77
2022/07/03 12:51:43;;;;;;;1.48;0.68;;;;;;;29.88;28.53;100409.97;10123339;29;20060;-78
2022/07/03 12:59:16;;;;;;;1.63;0.90;;;;;;;29.36;28.97;100405.44;10113553;29;20048;-78
2022/07/03 13:02:28;;;;;;;1.63;0.90;;;;;;;29.35;28.99;100409.31;10141734;29;21313;-77
2022/07/03 13:07:32;;;;;;;1.52;0.90;;;;;;;28.01;30.22;100396.50;10143251;29;20089;-78
2022/07/03 13:12:46;;;;;;;3.10;1.30;;;;;;;27.82;29.91;100392.13;10148416;29;20080;-78
2022/07/03 13:18:02;;;;;;;2.97;1.00;;;;;;;27.37;31.08;100410.00;10137315;29;20051;-78
2022/07/03 13:23:07;;;;;;;2.72;1.15;;;;;;;27.97;30.60;100411.00;10147301;29;20079;-77
2022/07/03 13:28:13;;;;;;;3.22;1.00;;;;;;;28.24;29.23;100384.59;10138689;29;20063;-77
2022/07/03 13:33:16;;;;;;;2.28;0.90;;;;;;;29.39;29.51;100384.75;10134738;29;20048;-77
2022/07/03 13:38:19;;;;;;;1.90;0.82;;;;;;;30.37;29.12;100378.88;10120003;29;20076;-78
2022/07/03 13:43:23;;;;;;;0.88;0.80;;;;;;;29.91;28.30;100376.22;10149439;29;20056;-77
2022/07/03 13:48:26;;;;;;;2.80;1.10;;;;;;;28.73;29.72;100389.81;10165196;29;20060;-77
2022/07/03 13:53:30;;;;;;;2.85;1.20;;;;;;;29.93;28.69;100374.06;10156030;29;20091;-78
2022/07/03 13:58:34;;;;;;;3.13;1.25;;;;;;;30.46;29.03;100396.72;10152712;29;20089;-78
2022/07/03 14:03:37;;;;;;;1.00;0.93;;;;;;;29.38;29.80;100386.69;10157271;29;20058;-78
2022/07/03 14:08:40;;;;;;;1.80;0.93;;;;;;;30.01;28.55;100387.47;10130599;29;20952;-78
2022/07/03 14:13:44;;;;;;;2.05;1.02;;;;;;;28.84;30.08;100399.16;10156376;29;20052;-77
2022/07/03 14:18:47;;;;;;;3.92;1.20;;;;;;;30.36;29.35;100391.03;10161271;29;20060;-78
2022/07/03 14:23:50;;;;;;;2.33;1.33;;;;;;;29.02;30.50;100393.44;10152058;29;20048;-78
2022/07/03 14:34:15;;;;;;;6.75;1.30;;;;;;;30.47;29.87;100393.69;10146714;29;20211;-78
2022/07/03 14:39:17;;;;;;;3.08;1.63;;;;;;;29.59;30.92;100400.84;10162160;29;20052;-77
2022/07/03 14:44:24;;;;;;;5.25;1.55;;;;;;;29.01;30.95;100404.75;10156197;29;20469;-78
2022/07/03 14:49:27;;;;;;;2.40;1.38;;;;;;;28.43;32.74;100410.16;10147572;29;20055;-77
2022/07/03 14:54:31;;;;;;;4.05;1.60;;;;;;;28.19;33.22;100405.72;10126792;29;21239;-78
2022/07/03 14:59:51;;;;;;;2.65;1.40;;;;;;;28.47;33.63;100410.53;10146231;29;20055;-77
2022/07/03 15:05:07;;;;;;;2.08;1.13;;;;;;;28.88;32.86;100409.50;10153446;29;20044;-78
2022/07/03 15:10:12;;;;;;;2.63;1.20;;;;;;;28.55;33.86;100406.53;10151253;29;20047;-78
2022/07/03 15:15:17;;;;;;;5.85;1.42;;;;;;;27.57;34.33;100411.66;10148083;29;20063;-78
2022/07/03 15:20:21;;;;;;;2.95;1.20;;;;;;;29.45;32.33;100405.03;10149145;29;20052;-78
2022/07/03 15:25:24;;;;;;;2.85;0.95;;;;;;;29.25;33.32;100405.50;10146690;29;20064;-78
2022/07/03 15:30:29;;;;;;;3.45;1.40;;;;;;;29.43;32.47;100394.25;10147076;29;20067;-78
2022/07/03 15:35:34;;;;;;;3.10;1.55;;;;;;;29.90;31.91;100391.19;10148399;29;20063;-78
2022/07/03 15:40:48;;;;;;;2.92;1.38;;;;;;;30.12;31.31;100387.63;10144633;29;20056;-78
2022/07/03 15:45:59;;;;;;;2.70;1.25;;;;;;;30.52;31.56;100375.44;10142279;29;20048;-78
2022/07/03 15:51:10;;;;;;;1.53;1.10;;;;;;;30.20;30.37;100368.66;10144908;29;20064;-77
2022/07/03 15:56:17;;;;;;;3.33;1.10;;;;;;;28.86;32.70;100392.28;10129318;29;20060;-77
2022/07/03 16:06:47;;;;;;;1.58;1.30;;;;;;;28.39;32.86;100384.09;10127706;29;20064;-78
2022/07/03 16:11:51;;;;;;;3.60;1.08;;;;;;;28.44;32.03;100377.81;10143647;29;20684;-78
2022/07/03 16:16:55;;;;;;;5.07;0.90;;;;;;;28.38;32.07;100374.13;10143468;29;20048;-78
2022/07/03 16:22:01;;;;;;;1.60;0.88;;;;;;;27.93;32.27;100380.25;10144372;29;20067;-78
2022/07/03 16:27:13;;;;;;;1.45;1.20;;;;;;;26.52;34.37;100385.22;10136590;29;20059;-78
2022/07/03 16:32:21;;;;;;;1.20;1.10;;;;;;;26.00;33.96;100385.56;10144901;29;20659;-78
2022/07/03 16:37:29;;;;;;;1.45;1.35;;;;;;;26.34;34.39;100399.03;10143133;29;20076;-78
2022/07/03 16:42:34;;;;;;;1.63;0.98;;;;;;;25.76;35.26;100397.44;10141122;29;20048;-78
2022/07/03 16:47:41;;;;;;;1.77;0.95;;;;;;;26.53;34.49;100397.94;10141404;29;20403;-78
2022/07/03 16:52:46;;;;;;;2.03;1.00;;;;;;;27.80;32.22;100395.13;10144490;29;20056;-78
2022/07/03 16:57:51;;;;;;;1.20;0.77;;;;;;;26.20;34.69;100398.28;10148030;29;20092;-77
2022/07/03 17:02:56;;;;;;;1.90;1.00;;;;;;;24.84;36.62;100394.16;10141489;29;20130;-77
2022/07/03 17:07:59;;;;;;;2.95;0.90;;;;;;;24.25;37.20;100402.34;10119571;29;20048;-77
2022/07/03 17:13:08;;;;;;;1.70;1.35;;;;;;;25.83;36.08;100403.69;10133144;29;20044;-78
2022/07/03 17:18:13;;;;;;;2.53;1.00;;;;;;;25.70;35.36;100401.91;10139850;29;20052;-78
2022/07/03 17:23:17;;;;;;;5.78;0.80;;;;;;;25.47;35.58;100407.97;10138001;29;20116;-77
2022/07/03 17:28:22;;;;;;;1.80;0.70;;;;;;;26.96;33.21;100397.03;10136297;29;20059;-77
2022/07/03 17:33:28;;;;;;;3.50;0.90;;;;;;;24.58;36.82;100417.91;10130541;29;20055;-76
2022/07/03 17:38:33;;;;;;;1.13;0.82;;;;;;;24.12;37.71;100421.56;10135399;29;20066;-78
2022/07/03 17:43:48;;;;;;;2.53;0.70;;;;;;;23.79;38.70;100422.41;10135856;29;20627;-78
2022/07/03 17:48:53;;;;;;;1.73;0.82;;;;;;;24.05;38.65;100431.69;10136036;29;20048;-78
2022/07/03 17:53:57;;;;;;;3.03;0.95;;;;;;;23.74;39.33;100435.88;10140980;29;20048;-78
2022/07/03 17:59:03;;;;;;;1.83;1.10;;;;;;;24.03;39.81;100444.78;10134089;29;20515;-78
2022/07/03 18:04:09;;;;;;;5.75;1.48;;;;;;;23.81;41.71;100436.78;10137238;29;20127;-78
2022/07/03 18:09:22;;;;;;;2.40;0.77;;;;;;;23.65;41.67;100448.97;10138228;29;20479;-78
2022/07/03 18:14:34;;;;;;;3.80;0.90;;;;;;;23.42;41.38;100446.63;10132618;29;20051;-78
2022/07/03 18:19:40;;;;;;;3.07;0.83;;;;;;;22.78;41.87;100455.19;10145602;29;20051;-78
2022/07/03 18:24:44;;;;;;;3.95;1.15;;;;;;;23.07;40.68;100456.81;10159196;29;20601;-78
2022/07/03 18:29:48;;;;;;;3.15;1.30;;;;;;;23.51;40.10;100462.88;10131073;29;20103;-78
2022/07/03 18:34:52;;;;;;;3.95;1.23;;;;;;;23.51;40.79;100457.38;10135071;29;20504;-78
2022/07/03 18:39:56;;;;;;;6.03;1.00;;;;;;;23.18;41.14;100478.16;10135702;29;20058;-78
2022/07/03 18:45:02;;;;;;;3.58;0.98;;;;;;;23.66;40.49;100477.22;10140619;29;20047;-78
2022/07/03 18:50:08;;;;;;;3.08;1.20;;;;;;;22.51;41.79;100482.41;10135739;29;20063;-77
2022/07/03 18:55:18;;;;;;;4.25;1.02;;;;;;;22.46;42.13;100487.66;10128442;29;20124;-77
2022/07/03 19:00:30;;;;;;;3.00;1.15;;;;;;;22.78;42.73;100493.53;10144953;29;20052;-77
2022/07/03 19:05:41;;;;;;;3.60;0.82;;;;;;;22.99;43.16;100496.16;10138912;29;20533;-77
2022/07/03 19:10:49;;;;;;;1.30;0.90;;;;;;;22.94;43.64;100506.88;10140053;29;20073;-77
2022/07/03 19:15:57;;;;;;;3.60;0.98;;;;;;;22.57;44.74;100518.22;10139151;29;20055;-77
2022/07/03 19:21:01;;;;;;;2.50;1.20;;;;;;;22.03;46.19;100515.06;10115661;29;20052;-77
2022/07/03 19:26:04;;;;;;;1.77;0.93;;;;;;;22.67;45.18;100519.56;10139641;29;20173;-78
2022/07/03 19:31:11;;;;;;;4.70;1.30;;;;;;;22.29;45.90;100525.38;10138825;29;20048;-78
2022/07/03 19:36:15;;;;;;;2.63;1.10;;;;;;;21.87;46.52;100529.00;10138068;29;20086;-78
2022/07/03 19:41:18;;;;;;;4.13;1.35;;;;;;;22.16;46.34;100540.81;10119654;29;20407;-78
2022/07/03 19:46:21;;;;;;;2.88;1.20;;;;;;;21.64;47.30;100553.75;10137995;29;21256;-77
2022/07/03 19:51:25;;;;;;;4.43;1.55;;;;;;;21.54;47.38;100548.59;10140457;29;20060;-78
2022/07/03 19:56:28;;;;;;;5.60;1.38;;;;;;;21.35;48.01;100550.03;10117458;29;20048;-78
2022/07/03 20:01:31;;;;;;;1.88;1.00;;;;;;;21.43;47.58;100565.47;10131246;29;20048;-78
2022/07/03 20:06:35;;;;;;;1.23;1.13;;;;;;;20.69;49.17;100576.41;10128713;29;20048;-78
2022/07/03 20:11:38;;;;;;;1.33;0.90;;;;;;;20.70;49.41;100583.53;10141991;29;20103;-78
2022/07/03 20:16:41;;;;;;;2.67;1.30;;;;;;;20.75;49.15;100592.88;10138831;29;20056;-78
2022/07/03 20:21:45;;;;;;;2.35;1.67;;;;;;;20.21;50.49;100589.41;10138009;29;20063;-77
2022/07/03 20:26:52;;;;;;;1.75;1.25;;;;;;;20.63;49.67;100607.16;10135410;29;20099;-77
2022/07/03 20:31:55;;;;;;;2.50;1.40;;;;;;;20.49;49.59;100619.75;10137749;29;20577;-77
2022/07/03 20:37:00;;;;;;;3.65;1.50;;;;;;;20.10;50.15;100627.00;10140138;29;20241;-78
2022/07/03 20:42:04;;;;;;;1.65;1.30;;;;;;;20.51;49.72;100623.13;10136865;29;20051;-78
2022/07/03 20:47:07;;;;;;;5.43;1.50;;;;;;;20.05;50.30;100625.84;10138818;29;20100;-77
2022/07/03 20:52:11;;;;;;;3.75;1.40;;;;;;;20.09;49.93;100633.47;10138348;29;20059;-78
2022/07/03 20:57:14;;;;;;;1.98;1.40;;;;;;;19.70;51.02;100649.03;10138446;29;20056;-77
2022/07/03 21:02:17;;;;;;;3.08;1.42;;;;;;;19.65;51.17;100657.75;10140542;29;20146;-77
2022/07/03 21:07:21;;;;;;;5.70;1.70;;;;;;;19.71;51.16;100664.34;10138805;29;20063;-78
2022/07/03 21:12:25;;;;;;;3.25;1.60;;;;;;;19.59;51.32;100667.47;10139672;29;20063;-77
2022/07/03 21:17:27;;;;;;;3.30;1.50;;;;;;;19.32;52.40;100663.28;10138756;29;20204;-77
2022/07/03 21:22:32;;;;;;;1.40;1.25;;;;;;;19.26;52.40;100671.31;10139146;29;20135;-77
2022/07/03 21:27:34;;;;;;;2.83;1.45;;;;;;;19.20;52.57;100672.84;10138425;29;20062;-77
2022/07/03 21:32:37;;;;;;;2.30;1.48;;;;;;;19.41;51.96;100672.28;10135744;29;20052;-77
2022/07/03 21:37:41;;;;;;;5.00;1.40;;;;;;;19.29;52.12;100674.53;10138282;29;20170;-78
2022/07/03 21:42:44;;;;;;;2.65;1.50;;;;;;;19.31;52.41;100679.78;10137788;29;20059;-78
2022/07/03 21:47:47;;;;;;;1.58;1.48;;;;;;;19.05;52.74;100683.59;10139373;29;20411;-77
2022/07/03 21:52:53;;;;;;;1.52;1.42;;;;;;;19.00;52.89;100684.09;10115634;29;20090;-78
2022/07/03 21:57:56;;;;;;;1.70;1.27;;;;;;;19.01;53.15;100684.97;10137527;29;21265;-77
2022/07/03 22:02:59;;;;;;;1.70;1.42;;;;;;;18.97;52.90;100689.03;10109582;29;20044;-77
2022/07/03 22:08:04;;;;;;;1.77;1.55;;;;;;;19.00;53.07;100692.25;10138879;29;20075;-78
2022/07/03 22:13:12;;;;;;;3.67;1.98;;;;;;;18.85;53.59;100688.56;10135507;29;20048;-77
2022/07/03 22:18:16;;;;;;;4.22;1.60;;;;;;;18.54;54.05;100694.66;10139396;29;20120;-78
2022/07/03 22:23:20;;;;;;;2.70;1.60;;;;;;;18.33;54.85;100680.69;10137455;29;20059;-77
2022/07/03 22:28:23;;;;;;;2.95;1.30;;;;;;;18.33;55.13;100680.69;10139169;29;20063;-77
2022/07/03 22:33:31;;;;;;;3.42;1.42;;;;;;;18.38;55.37;100669.31;10138052;29;20663;-78
2022/07/03 22:38:35;;;;;;;1.70;1.60;;;;;;;18.52;55.14;100661.31;10142094;29;20048;-78
2022/07/03 22:43:38;;;;;;;2.58;1.55;;;;;;;18.60;54.81;100674.09;10145378;29;20139;-77
2022/07/03 22:48:41;;;;;;;2.53;1.65;;;;;;;18.31;55.50;100664.53;10144070;29;20439;-78
2022/07/03 22:53:45;;;;;;;7.05;1.67;;;;;;;18.19;55.80;100665.88;10144588;29;20142;-77
2022/07/03 22:58:47;;;;;;;2.28;1.50;;;;;;;17.94;56.34;100664.97;10141217;29;20084;-77
2022/07/03 23:03:50;;;;;;;1.58;1.30;;;;;;;17.89;56.79;100661.88;10145713;29;20080;-77
2022/07/03 23:08:55;;;;;;;2.42;1.70;;;;;;;17.65;57.83;100666.19;10153735;29;20044;-78
2022/07/03 23:13:58;;;;;;;2.38;1.88;;;;;;;17.57;57.96;100673.47;10163167;29;20052;-77
2022/07/03 23:19:01;;;;;;;2.50;2.30;;;;;;;17.54;57.92;100671.94;10159013;29;20056;-77
2022/07/03 23:24:06;;;;;;;1.75;1.65;;;;;;;17.22;59.37;100667.19;10153904;29;21168;-77
2022/07/03 23:29:09;;;;;;;2.33;1.90;;;;;;;17.04;59.72;100673.50;10146274;29;20060;-77
2022/07/03 23:34:12;;;;;;;3.38;2.00;;;;;;;16.91;60.45;100673.06;10145298;29;20071;-77
2022/07/03 23:39:16;;;;;;;2.25;1.80;;;;;;;17.16;59.79;100681.41;10143438;29;20100;-78
2022/07/03 23:44:19;;;;;;;3.63;1.85;;;;;;;17.39;58.62;100684.44;10144475;29;20052;-77